sensor_id;sensor_type;location;lat;lon;timestamp;pressure;altitude;pressure_sealevel;temperature;humidity
18795;BME280;29610;49.022;12.114;2024-03-02T00:01:56;96747.88;;;8.33;100.00
18795;BME280;29610;49.022;12.114;2024-03-02T00:04:24;96744.94;;;8.38;100.00
18795;BME280;29610;49.022;12.114;2024-03-02T00:06:53;96740.19;;;8.35;100.00
18795;BME280;29610;49.022;12.114;2024-03-02T00:09:24;96746.47;;;8.27;100.00
18795;BME280;29610;49.022;12.114;2024-03-02T00:11:53;96738.81;;;8.29;100.00
18795;BME280;29610;49.022;12.114;2024-03-02T00:14:21;96737.81;;;8.04;100.00
18795;BME280;29610;49.022;12.114;2024-03-02T00:16:51;96742.19;;;8.26;100.00
18795;BME280;29610;49.022;12.114;2024-03-02T00:19:20;96736.88;;;8.09;100.00
18795;BME280;29610;49.022;12.114;2024-03-02T00:21:48;96738.91;;;8.12;100.00
18795;BME280;29610;49.022;12.114;2024-03-02T00:24:24;96739.47;;;8.26;100.00
18795;BME280;29610;49.022;12.114;2024-03-02T00:26:57;96738.47;;;8.30;100.00
18795;BME280;29610;49.022;12.114;2024-03-02T00:29:26;96741.38;;;8.25;100.00
18795;BME280;29610;49.022;12.114;2024-03-02T00:31:55;96741.31;;;8.34;100.00
18795;BME280;29610;49.022;12.114;2024-03-02T00:34:24;96738.75;;;8.37;100.00
18795;BME280;29610;49.022;12.114;2024-03-02T00:36:52;96741.38;;;8.25;100.00
18795;BME280;29610;49.022;12.114;2024-03-02T00:39:23;96741.53;;;8.29;100.00
18795;BME280;29610;49.022;12.114;2024-03-02T00:41:52;96740.28;;;8.18;100.00
18795;BME280;29610;49.022;12.114;2024-03-02T00:44:25;96737.25;;;8.28;100.00
18795;BME280;29610;49.022;12.114;2024-03-02T00:46:58;96739.47;;;8.26;100.00
18795;BME280;29610;49.022;12.114;2024-03-02T00:49:26;96736.06;;;8.37;100.00
18795;BME280;29610;49.022;12.114;2024-03-02T00:51:55;96735.31;;;8.28;100.00
18795;BME280;29610;49.022;12.114;2024-03-02T00:54:26;96733.34;;;8.37;100.00
18795;BME280;29610;49.022;12.114;2024-03-02T00:56:57;96743.50;;;8.40;100.00
18795;BME280;29610;49.022;12.114;2024-03-02T00:59:25;96737.06;;;8.33;100.00
18795;BME280;29610;49.022;12.114;2024-03-02T01:01:54;96743.03;;;8.09;100.00
18795;BME280;29610;49.022;12.114;2024-03-02T01:04:22;96732.78;;;8.23;100.00
18795;BME280;29610;49.022;12.114;2024-03-02T01:06:50;96732.41;;;8.33;100.00
18795;BME280;29610;49.022;12.114;2024-03-02T01:09:19;96728.47;;;8.31;100.00
18795;BME280;29610;49.022;12.114;2024-03-02T01:11:49;96735.25;;;8.37;100.00
18795;BME280;29610;49.022;12.114;2024-03-02T01:14:17;96729.13;;;8.19;100.00
18795;BME280;29610;49.022;12.114;2024-03-02T01:16:45;96734.72;;;8.23;100.00
18795;BME280;29610;49.022;12.114;2024-03-02T01:19:14;96722.38;;;8.34;100.00
18795;BME280;29610;49.022;12.114;2024-03-02T01:21:42;96725.56;;;8.36;100.00
18795;BME280;29610;49.022;12.114;2024-03-02T01:24:10;96730.69;;;8.29;100.00
18795;BME280;29610;49.022;12.114;2024-03-02T01:26:40;96727.47;;;8.35;100.00
18795;BME280;29610;49.022;12.114;2024-03-02T01:29:10;96723.44;;;8.41;100.00
18795;BME280;29610;49.022;12.114;2024-03-02T01:31:38;96729.66;;;8.42;100.00
18795;BME280;29610;49.022;12.114;2024-03-02T01:34:09;96726.41;;;8.28;100.00
18795;BME280;29610;49.022;12.114;2024-03-02T01:36:37;96720.47;;;8.34;100.00
18795;BME280;29610;49.022;12.114;2024-03-02T01:39:05;96726.13;;;8.41;100.00
18795;BME280;29610;49.022;12.114;2024-03-02T01:41:36;96727.94;;;8.37;100.00
18795;BME280;29610;49.022;12.114;2024-03-02T01:44:04;96729.22;;;8.31;100.00
18795;BME280;29610;49.022;12.114;2024-03-02T01:46:34;96720.53;;;8.26;100.00
18795;BME280;29610;49.022;12.114;2024-03-02T01:49:03;96726.75;;;8.26;100.00
18795;BME280;29610;49.022;12.114;2024-03-02T01:51:31;96725.47;;;8.44;100.00
18795;BME280;29610;49.022;12.114;2024-03-02T01:54:00;96720.00;;;8.32;100.00
18795;BME280;29610;49.022;12.114;2024-03-02T01:56:28;96722.72;;;8.32;100.00
18795;BME280;29610;49.022;12.114;2024-03-02T01:58:56;96717.09;;;8.37;100.00
18795;BME280;29610;49.022;12.114;2024-03-02T02:01:25;96721.19;;;8.43;100.00
18795;BME280;29610;49.022;12.114;2024-03-02T02:03:55;96719.47;;;8.39;100.00
18795;BME280;29610;49.022;12.114;2024-03-02T02:06:23;96719.28;;;8.44;100.00
18795;BME280;29610;49.022;12.114;2024-03-02T02:08:51;96722.06;;;8.35;100.00
18795;BME280;29610;49.022;12.114;2024-03-02T02:11:20;96720.53;;;8.46;100.00
18795;BME280;29610;49.022;12.114;2024-03-02T02:13:48;96721.66;;;8.25;100.00
18795;BME280;29610;49.022;12.114;2024-03-02T02:16:17;96712.94;;;8.40;100.00
18795;BME280;29610;49.022;12.114;2024-03-02T02:18:45;96715.59;;;8.48;100.00
18795;BME280;29610;49.022;12.114;2024-03-02T02:21:15;96721.84;;;8.40;100.00
18795;BME280;29610;49.022;12.114;2024-03-02T02:23:45;96711.22;;;8.35;100.00
18795;BME280;29610;49.022;12.114;2024-03-02T02:26:15;96714.66;;;8.44;100.00
18795;BME280;29610;49.022;12.114;2024-03-02T02:28:44;96716.91;;;8.42;100.00
18795;BME280;29610;49.022;12.114;2024-03-02T02:31:14;96715.97;;;8.38;100.00
18795;BME280;29610;49.022;12.114;2024-03-02T02:33:43;96712.47;;;8.38;100.00
18795;BME280;29610;49.022;12.114;2024-03-02T02:36:11;96710.09;;;8.36;100.00
18795;BME280;29610;49.022;12.114;2024-03-02T02:38:46;96712.13;;;8.39;100.00
18795;BME280;29610;49.022;12.114;2024-03-02T02:41:16;96711.22;;;8.35;100.00
18795;BME280;29610;49.022;12.114;2024-03-02T02:43:44;96712.94;;;8.40;100.00
18795;BME280;29610;49.022;12.114;2024-03-02T02:46:13;96703.81;;;8.44;100.00
18795;BME280;29610;49.022;12.114;2024-03-02T02:48:41;96700.38;;;8.56;100.00
18795;BME280;29610;49.022;12.114;2024-03-02T02:51:09;96704.34;;;8.38;100.00
18795;BME280;29610;49.022;12.114;2024-03-02T02:53:37;96705.53;;;8.49;100.00
18795;BME280;29610;49.022;12.114;2024-03-02T02:56:09;96698.81;;;8.55;100.00
18795;BME280;29610;49.022;12.114;2024-03-02T02:58:37;96703.81;;;8.44;100.00
18795;BME280;29610;49.022;12.114;2024-03-02T03:01:05;96700.25;;;8.52;100.00
18795;BME280;29610;49.022;12.114;2024-03-02T03:03:34;96704.63;;;8.45;100.00
18795;BME280;29610;49.022;12.114;2024-03-02T03:06:03;96703.88;;;8.56;100.00
18795;BME280;29610;49.022;12.114;2024-03-02T03:08:31;96703.63;;;8.49;100.00
18795;BME280;29610;49.022;12.114;2024-03-02T03:11:00;96703.63;;;8.49;100.00
18795;BME280;29610;49.022;12.114;2024-03-02T03:13:29;96706.09;;;8.42;100.00
18795;BME280;29610;49.022;12.114;2024-03-02T03:15:58;96701.72;;;8.50;100.00
18795;BME280;29610;49.022;12.114;2024-03-02T03:18:26;96710.16;;;8.48;100.00
18795;BME280;29610;49.022;12.114;2024-03-02T03:20:54;96703.28;;;8.51;100.00
18795;BME280;29610;49.022;12.114;2024-03-02T03:23:22;96700.72;;;8.54;100.00
18795;BME280;29610;49.022;12.114;2024-03-02T03:25:52;96709.44;;;8.39;100.00
18795;BME280;29610;49.022;12.114;2024-03-02T03:28:20;96712.03;;;8.36;100.00
18795;BME280;29610;49.022;12.114;2024-03-02T03:30:50;96708.00;;;8.42;100.00
18795;BME280;29610;49.022;12.114;2024-03-02T03:33:18;96703.94;;;8.48;100.00
18795;BME280;29610;49.022;12.114;2024-03-02T03:35:47;96705.28;;;8.42;100.00
18795;BME280;29610;49.022;12.114;2024-03-02T03:38:15;96706.38;;;8.41;100.00
18795;BME280;29610;49.022;12.114;2024-03-02T03:40:43;96701.31;;;8.39;100.00
18795;BME280;29610;49.022;12.114;2024-03-02T03:43:12;96695.50;;;8.49;100.00
18795;BME280;29610;49.022;12.114;2024-03-02T03:45:40;96701.06;;;8.32;100.00
18795;BME280;29610;49.022;12.114;2024-03-02T03:48:10;96705.00;;;8.35;100.00
18795;BME280;29610;49.022;12.114;2024-03-02T03:50:38;96703.44;;;8.34;100.00
18795;BME280;29610;49.022;12.114;2024-03-02T03:53:07;96708.50;;;8.35;100.00
18795;BME280;29610;49.022;12.114;2024-03-02T03:55:35;96707.06;;;8.38;100.00
18795;BME280;29610;49.022;12.114;2024-03-02T03:58:04;96708.50;;;8.35;100.00
18795;BME280;29610;49.022;12.114;2024-03-02T04:00:32;96711.09;;;8.32;100.00
18795;BME280;29610;49.022;12.114;2024-03-02T04:03:00;96715.84;;;8.35;100.00
18795;BME280;29610;49.022;12.114;2024-03-02T04:05:30;96709.75;;;8.38;100.00
18795;BME280;29610;49.022;12.114;2024-03-02T04:07:59;96708.03;;;8.33;100.00
18795;BME280;29610;49.022;12.114;2024-03-02T04:10:28;96710.16;;;8.48;100.00
18795;BME280;29610;49.022;12.114;2024-03-02T04:12:57;96716.63;;;8.35;100.00
18795;BME280;29610;49.022;12.114;2024-03-02T04:15:25;96714.06;;;8.39;100.00
18795;BME280;29610;49.022;12.114;2024-03-02T04:17:54;96718.50;;;8.23;100.00
18795;BME280;29610;49.022;12.114;2024-03-02T04:20:22;96726.53;;;8.31;100.00
18795;BME280;29610;49.022;12.114;2024-03-02T04:22:52;96722.31;;;8.42;100.00
18795;BME280;29610;49.022;12.114;2024-03-02T04:25:20;96720.66;;;8.50;100.00
18795;BME280;29610;49.022;12.114;2024-03-02T04:27:48;96731.63;;;8.53;100.00
18795;BME280;29610;49.022;12.114;2024-03-02T04:30:17;96721.34;;;8.47;100.00
18795;BME280;29610;49.022;12.114;2024-03-02T04:32:45;96729.88;;;8.28;100.00
18795;BME280;29610;49.022;12.114;2024-03-02T04:35:15;96730.38;;;8.51;100.00
18795;BME280;29610;49.022;12.114;2024-03-02T04:37:43;96725.81;;;8.43;100.00
18795;BME280;29610;49.022;12.114;2024-03-02T04:40:13;96727.19;;;8.49;100.00
18795;BME280;29610;49.022;12.114;2024-03-02T04:42:41;96731.31;;;8.55;100.00
18795;BME280;29610;49.022;12.114;2024-03-02T04:45:10;96733.69;;;8.56;100.00
18795;BME280;29610;49.022;12.114;2024-03-02T04:47:39;96740.13;;;8.64;100.00
18795;BME280;29610;49.022;12.114;2024-03-02T04:50:08;96730.13;;;8.44;100.00
18795;BME280;29610;49.022;12.114;2024-03-02T04:52:37;96740.66;;;8.57;100.00
18795;BME280;29610;49.022;12.114;2024-03-02T04:55:06;96744.22;;;8.49;100.00
18795;BME280;29610;49.022;12.114;2024-03-02T04:57:48;96739.88;;;8.57;100.00
18795;BME280;29610;49.022;12.114;2024-03-02T05:00:18;96741.00;;;8.56;100.00
18795;BME280;29610;49.022;12.114;2024-03-02T05:02:46;96744.66;;;8.60;100.00
18795;BME280;29610;49.022;12.114;2024-03-02T05:05:15;96732.53;;;8.57;100.00
18795;BME280;29610;49.022;12.114;2024-03-02T05:07:43;96740.19;;;8.55;100.00
18795;BME280;29610;49.022;12.114;2024-03-02T05:10:11;96744.38;;;8.53;100.00
18795;BME280;29610;49.022;12.114;2024-03-02T05:12:40;96741.06;;;8.47;100.00
18795;BME280;29610;49.022;12.114;2024-03-02T05:15:25;96754.41;;;8.52;100.00
18795;BME280;29610;49.022;12.114;2024-03-02T05:17:53;96754.53;;;8.56;100.00
18795;BME280;29610;49.022;12.114;2024-03-02T05:20:24;96758.19;;;8.60;100.00
18795;BME280;29610;49.022;12.114;2024-03-02T05:22:55;96755.47;;;8.60;100.00
18795;BME280;29610;49.022;12.114;2024-03-02T05:25:23;96760.66;;;8.65;100.00
18795;BME280;29610;49.022;12.114;2024-03-02T05:27:51;96755.25;;;8.65;100.00
18795;BME280;29610;49.022;12.114;2024-03-02T05:30:19;96758.56;;;8.70;100.00
18795;BME280;29610;49.022;12.114;2024-03-02T05:32:49;96761.59;;;8.69;100.00
18795;BME280;29610;49.022;12.114;2024-03-02T05:35:17;96760.00;;;8.68;100.00
18795;BME280;29610;49.022;12.114;2024-03-02T05:37:46;96759.09;;;8.64;100.00
18795;BME280;29610;49.022;12.114;2024-03-02T05:40:14;96761.66;;;8.60;100.00
18795;BME280;29610;49.022;12.114;2024-03-02T05:42:42;96757.75;;;8.70;100.00
18795;BME280;29610;49.022;12.114;2024-03-02T05:45:11;96764.97;;;8.66;100.00
18795;BME280;29610;49.022;12.114;2024-03-02T05:47:40;96771.63;;;8.68;100.00
18795;BME280;29610;49.022;12.114;2024-03-02T05:50:09;96772.16;;;8.62;100.00
18795;BME280;29610;49.022;12.114;2024-03-02T05:52:38;96774.53;;;8.63;100.00
18795;BME280;29610;49.022;12.114;2024-03-02T05:55:07;96770.19;;;8.71;100.00
18795;BME280;29610;49.022;12.114;2024-03-02T05:57:35;96773.53;;;8.68;100.00
18795;BME280;29610;49.022;12.114;2024-03-02T06:00:17;96772.31;;;8.65;100.00
18795;BME280;29610;49.022;12.114;2024-03-02T06:02:45;96777.84;;;8.69;100.00
18795;BME280;29610;49.022;12.114;2024-03-02T06:05:15;96777.13;;;8.80;100.00
18795;BME280;29610;49.022;12.114;2024-03-02T06:07:44;96775.53;;;8.79;100.00
18795;BME280;29610;49.022;12.114;2024-03-02T06:10:13;96775.41;;;8.76;100.00
18795;BME280;29610;49.022;12.114;2024-03-02T06:12:42;96775.88;;;8.78;100.00
18795;BME280;29610;49.022;12.114;2024-03-02T06:15:10;96780.69;;;8.93;100.00
18795;BME280;29610;49.022;12.114;2024-03-02T06:17:38;96780.41;;;8.86;100.00
18795;BME280;29610;49.022;12.114;2024-03-02T06:20:08;96787.97;;;8.80;100.00
18795;BME280;29610;49.022;12.114;2024-03-02T06:22:38;96786.84;;;8.81;100.00
18795;BME280;29610;49.022;12.114;2024-03-02T06:25:07;96783.28;;;8.69;100.00
18795;BME280;29610;49.022;12.114;2024-03-02T06:27:36;96782.78;;;8.87;100.00
18795;BME280;29610;49.022;12.114;2024-03-02T06:30:05;96786.16;;;8.84;100.00
18795;BME280;29610;49.022;12.114;2024-03-02T06:32:33;96786.31;;;8.88;100.00
18795;BME280;29610;49.022;12.114;2024-03-02T06:35:03;96781.22;;;8.86;100.00
18795;BME280;29610;49.022;12.114;2024-03-02T06:37:32;96784.16;;;8.93;100.00
18795;BME280;29610;49.022;12.114;2024-03-02T06:40:02;96783.41;;;8.93;100.00
18795;BME280;29610;49.022;12.114;2024-03-02T06:42:31;96779.41;;;8.90;100.00
18795;BME280;29610;49.022;12.114;2024-03-02T06:45:01;96777.53;;;8.70;100.00
18795;BME280;29610;49.022;12.114;2024-03-02T06:47:30;96788.88;;;8.84;100.00
18795;BME280;29610;49.022;12.114;2024-03-02T06:49:59;96785.66;;;9.03;100.00
18795;BME280;29610;49.022;12.114;2024-03-02T06:52:27;96785.59;;;9.12;100.00
18795;BME280;29610;49.022;12.114;2024-03-02T07:07:49;96785.00;;;9.27;100.00
18795;BME280;29610;49.022;12.114;2024-03-02T07:10:17;96786.53;;;9.16;100.00
18795;BME280;29610;49.022;12.114;2024-03-02T07:12:45;96789.16;;;9.24;100.00
18795;BME280;29610;49.022;12.114;2024-03-02T07:15:13;96787.69;;;9.27;100.00
18795;BME280;29610;49.022;12.114;2024-03-02T07:18:11;96790.06;;;9.28;100.00
18795;BME280;29610;49.022;12.114;2024-03-02T07:20:40;96801.06;;;9.11;100.00
18795;BME280;29610;49.022;12.114;2024-03-02T07:23:09;96800.63;;;9.09;100.00
18795;BME280;29610;49.022;12.114;2024-03-02T07:25:38;96798.78;;;9.01;100.00
18795;BME280;29610;49.022;12.114;2024-03-02T07:28:09;96799.63;;;9.14;100.00
18795;BME280;29610;49.022;12.114;2024-03-02T07:30:37;96809.28;;;9.35;100.00
18795;BME280;29610;49.022;12.114;2024-03-02T07:33:07;96805.63;;;9.52;100.00
18795;BME280;29610;49.022;12.114;2024-03-02T07:35:35;96809.28;;;9.35;100.00
18795;BME280;29610;49.022;12.114;2024-03-02T07:38:03;96811.00;;;9.07;100.00
18795;BME280;29610;49.022;12.114;2024-03-02T07:40:33;96817.41;;;9.03;100.00
18795;BME280;29610;49.022;12.114;2024-03-02T07:43:01;96820.91;;;9.24;100.00
18795;BME280;29610;49.022;12.114;2024-03-02T07:45:29;96818.34;;;9.39;100.00
18795;BME280;29610;49.022;12.114;2024-03-02T07:47:58;96821.88;;;9.52;100.00
18795;BME280;29610;49.022;12.114;2024-03-02T07:50:26;96821.97;;;9.43;100.00
18795;BME280;29610;49.022;12.114;2024-03-02T07:52:55;96826.38;;;9.48;100.00
18795;BME280;29610;49.022;12.114;2024-03-02T07:55:23;96829.75;;;9.45;100.00
18795;BME280;29610;49.022;12.114;2024-03-02T07:57:53;96826.34;;;9.36;100.00
18795;BME280;29610;49.022;12.114;2024-03-02T08:00:22;96832.59;;;9.48;100.00
18795;BME280;29610;49.022;12.114;2024-03-02T08:02:51;96836.16;;;9.61;100.00
18795;BME280;29610;49.022;12.114;2024-03-02T08:05:20;96839.53;;;9.58;100.00
18795;BME280;29610;49.022;12.114;2024-03-02T08:07:48;96841.69;;;9.64;100.00
18795;BME280;29610;49.022;12.114;2024-03-02T08:10:19;96844.19;;;9.69;100.00
18795;BME280;29610;49.022;12.114;2024-03-02T08:12:47;96850.69;;;9.89;100.00
18795;BME280;29610;49.022;12.114;2024-03-02T08:15:17;96852.25;;;9.90;100.00
18795;BME280;29610;49.022;12.114;2024-03-02T08:17:45;96851.13;;;9.91;100.00
18795;BME280;29610;49.022;12.114;2024-03-02T08:20:16;96849.25;;;10.03;100.00
18795;BME280;29610;49.022;12.114;2024-03-02T08:22:46;96853.06;;;10.02;100.00
18795;BME280;29610;49.022;12.114;2024-03-02T08:25:14;96846.97;;;10.05;100.00
18795;BME280;29610;49.022;12.114;2024-03-02T08:27:43;96851.44;;;10.10;100.00
18795;BME280;29610;49.022;12.114;2024-03-02T08:30:13;96854.81;;;10.31;100.00
18795;BME280;29610;49.022;12.114;2024-03-02T08:32:42;96852.00;;;10.15;100.00
18795;BME280;29610;49.022;12.114;2024-03-02T08:35:12;96853.34;;;10.21;100.00
18795;BME280;29610;49.022;12.114;2024-03-02T08:37:42;96854.22;;;10.01;100.00
18795;BME280;29610;49.022;12.114;2024-03-02T08:40:11;96856.00;;;9.97;100.00
18795;BME280;29610;49.022;12.114;2024-03-02T08:42:44;96860.34;;;10.10;100.00
18795;BME280;29610;49.022;12.114;2024-03-02T08:45:13;96856.25;;;10.04;100.00
18795;BME280;29610;49.022;12.114;2024-03-02T08:47:42;96855.97;;;10.30;100.00
18795;BME280;29610;49.022;12.114;2024-03-02T08:50:11;96859.81;;;10.29;100.00
18795;BME280;29610;49.022;12.114;2024-03-02T08:52:39;96864.22;;;10.21;100.00
18795;BME280;29610;49.022;12.114;2024-03-02T08:55:08;96865.13;;;10.25;100.00
18795;BME280;29610;49.022;12.114;2024-03-02T08:57:38;96862.41;;;10.50;100.00
18795;BME280;29610;49.022;12.114;2024-03-02T09:00:08;96860.03;;;10.48;100.00
18795;BME280;29610;49.022;12.114;2024-03-02T09:02:36;96859.78;;;10.53;100.00
18795;BME280;29610;49.022;12.114;2024-03-02T09:05:08;96863.16;;;10.86;100.00
18795;BME280;29610;49.022;12.114;2024-03-02T09:07:36;96861.91;;;10.96;100.00
18795;BME280;29610;49.022;12.114;2024-03-02T09:10:06;96857.00;;;11.13;100.00
18795;BME280;29610;49.022;12.114;2024-03-02T09:12:36;96853.25;;;11.06;100.00
18795;BME280;29610;49.022;12.114;2024-03-02T09:15:06;96861.38;;;11.18;100.00
18795;BME280;29610;49.022;12.114;2024-03-02T09:17:34;96858.19;;;11.28;100.00
18795;BME280;29610;49.022;12.114;2024-03-02T09:20:04;96871.38;;;11.41;100.00
18795;BME280;29610;49.022;12.114;2024-03-02T09:22:33;96859.31;;;11.27;100.00
18795;BME280;29610;49.022;12.114;2024-03-02T09:25:02;96866.06;;;11.33;100.00
18795;BME280;29610;49.022;12.114;2024-03-02T09:27:30;96864.97;;;11.22;100.00
18795;BME280;29610;49.022;12.114;2024-03-02T09:29:59;96866.69;;;11.54;100.00
18795;BME280;29610;49.022;12.114;2024-03-02T09:32:27;96860.81;;;11.52;100.00
18795;BME280;29610;49.022;12.114;2024-03-02T09:34:56;96868.19;;;11.51;100.00
18795;BME280;29610;49.022;12.114;2024-03-02T09:37:25;96869.16;;;11.87;100.00
18795;BME280;29610;49.022;12.114;2024-03-02T09:39:55;96862.28;;;11.49;100.00
18795;BME280;29610;49.022;12.114;2024-03-02T09:42:24;96870.38;;;11.73;100.00
18795;BME280;29610;49.022;12.114;2024-03-02T09:44:53;96864.06;;;11.85;100.00
18795;BME280;29610;49.022;12.114;2024-03-02T09:47:21;96855.13;;;12.00;100.00
18795;BME280;29610;49.022;12.114;2024-03-02T09:49:49;96848.09;;;12.15;100.00
18795;BME280;29610;49.022;12.114;2024-03-02T09:52:17;96859.19;;;12.37;100.00
18795;BME280;29610;49.022;12.114;2024-03-02T09:54:47;96848.53;;;12.48;100.00
18795;BME280;29610;49.022;12.114;2024-03-02T09:57:18;96853.75;;;12.06;100.00
18795;BME280;29610;49.022;12.114;2024-03-02T09:59:46;96850.75;;;12.42;100.00
18795;BME280;29610;49.022;12.114;2024-03-02T10:02:15;96847.41;;;12.49;100.00
18795;BME280;29610;49.022;12.114;2024-03-02T10:04:43;96845.88;;;12.67;100.00
18795;BME280;29610;49.022;12.114;2024-03-02T10:07:14;96847.19;;;12.73;100.00
18795;BME280;29610;49.022;12.114;2024-03-02T10:09:44;96846.13;;;12.77;100.00
18795;BME280;29610;49.022;12.114;2024-03-02T10:12:14;96859.25;;;12.91;100.00
18795;BME280;29610;49.022;12.114;2024-03-02T10:14:45;96850.03;;;12.95;100.00
18795;BME280;29610;49.022;12.114;2024-03-02T10:17:18;96846.28;;;12.84;100.00
18795;BME280;29610;49.022;12.114;2024-03-02T10:19:46;96840.13;;;12.87;100.00
18795;BME280;29610;49.022;12.114;2024-03-02T10:22:14;96839.09;;;13.11;100.00
18795;BME280;29610;49.022;12.114;2024-03-02T10:24:44;96839.19;;;13.14;100.00
18795;BME280;29610;49.022;12.114;2024-03-02T10:27:16;96836.56;;;13.41;100.00
18795;BME280;29610;49.022;12.114;2024-03-02T10:29:47;96835.91;;;13.66;100.00
18795;BME280;29610;49.022;12.114;2024-03-02T10:32:16;96832.41;;;13.88;100.00
18795;BME280;29610;49.022;12.114;2024-03-02T10:34:46;96829.56;;;13.81;100.00
18795;BME280;29610;49.022;12.114;2024-03-02T10:37:15;96827.94;;;13.77;100.00
18795;BME280;29610;49.022;12.114;2024-03-02T10:39:46;96826.28;;;13.95;100.00
18795;BME280;29610;49.022;12.114;2024-03-02T10:42:17;96820.31;;;14.08;100.00
18795;BME280;29610;49.022;12.114;2024-03-02T10:44:49;96817.44;;;14.24;100.00
18795;BME280;29610;49.022;12.114;2024-03-02T10:47:19;96813.31;;;14.11;100.00
18795;BME280;29610;49.022;12.114;2024-03-02T10:49:49;96809.97;;;14.21;100.00
18795;BME280;29610;49.022;12.114;2024-03-02T10:52:19;96811.63;;;13.61;100.00
18795;BME280;29610;49.022;12.114;2024-03-02T10:54:50;96808.25;;;13.68;100.00
18795;BME280;29610;49.022;12.114;2024-03-02T10:57:22;96811.06;;;13.94;100.00
18795;BME280;29610;49.022;12.114;2024-03-02T10:59:57;96796.88;;;13.85;100.00
18795;BME280;29610;49.022;12.114;2024-03-02T11:02:32;96798.44;;;13.86;100.00
18795;BME280;29610;49.022;12.114;2024-03-02T11:05:08;96804.34;;;13.88;100.00
18795;BME280;29610;49.022;12.114;2024-03-02T11:07:40;96800.25;;;13.78;100.00
18795;BME280;29610;49.022;12.114;2024-03-02T11:10:09;96798.59;;;13.93;100.00
18795;BME280;29610;49.022;12.114;2024-03-02T11:12:46;96794.97;;;13.89;100.00
18795;BME280;29610;49.022;12.114;2024-03-02T11:15:18;96789.28;;;14.20;100.00
18795;BME280;29610;49.022;12.114;2024-03-02T11:17:48;96784.56;;;13.94;100.00
18795;BME280;29610;49.022;12.114;2024-03-02T11:20:17;96780.22;;;14.16;100.00
18795;BME280;29610;49.022;12.114;2024-03-02T11:22:47;96782.78;;;13.83;100.00
18795;BME280;29610;49.022;12.114;2024-03-02T11:25:26;96779.00;;;13.68;100.00
18795;BME280;29610;49.022;12.114;2024-03-02T11:28:04;96782.13;;;13.89;100.00
18795;BME280;29610;49.022;12.114;2024-03-02T11:30:52;96766.53;;;13.67;100.00
18795;BME280;29610;49.022;12.114;2024-03-02T11:33:26;96763.00;;;13.25;100.00
18795;BME280;29610;49.022;12.114;2024-03-02T11:35:57;96763.41;;;13.46;100.00
18795;BME280;29610;49.022;12.114;2024-03-02T11:38:31;96764.34;;;13.99;100.00
18795;BME280;29610;49.022;12.114;2024-03-02T11:41:01;96751.66;;;13.65;100.00
18795;BME280;29610;49.022;12.114;2024-03-02T11:43:30;96752.28;;;14.48;100.00
18795;BME280;29610;49.022;12.114;2024-03-02T11:46:03;96746.91;;;14.07;100.00
18795;BME280;29610;49.022;12.114;2024-03-02T11:48:35;96745.25;;;14.51;100.00
18795;BME280;29610;49.022;12.114;2024-03-02T11:51:05;96739.28;;;14.42;100.00
18795;BME280;29610;49.022;12.114;2024-03-02T11:53:35;96745.13;;;14.40;100.00
18795;BME280;29610;49.022;12.114;2024-03-02T11:56:09;96727.94;;;14.69;100.00
18795;BME280;29610;49.022;12.114;2024-03-02T11:58:40;96730.81;;;14.50;100.00
18795;BME280;29610;49.022;12.114;2024-03-02T12:01:10;96729.66;;;15.14;100.00
18795;BME280;29610;49.022;12.114;2024-03-02T12:03:40;96722.25;;;15.15;100.00
18795;BME280;29610;49.022;12.114;2024-03-02T12:06:09;96721.31;;;15.33;100.00
18795;BME280;29610;49.022;12.114;2024-03-02T12:08:38;96722.91;;;15.38;100.00
18795;BME280;29610;49.022;12.114;2024-03-02T12:11:07;96725.09;;;14.89;100.00
18795;BME280;29610;49.022;12.114;2024-03-02T12:13:35;96728.91;;;14.54;100.00
18795;BME280;29610;49.022;12.114;2024-03-02T12:16:05;96720.53;;;15.00;100.00
18795;BME280;29610;49.022;12.114;2024-03-02T12:18:35;96718.50;;;15.63;100.00
18795;BME280;29610;49.022;12.114;2024-03-02T12:21:03;96709.81;;;16.48;100.00
18795;BME280;29610;49.022;12.114;2024-03-02T12:23:35;96705.56;;;17.72;100.00
18795;BME280;29610;49.022;12.114;2024-03-02T12:26:04;96691.06;;;18.20;100.00
18795;BME280;29610;49.022;12.114;2024-03-02T12:28:34;96687.53;;;18.13;100.00
18795;BME280;29610;49.022;12.114;2024-03-02T12:31:03;96678.47;;;18.23;100.00
18795;BME280;29610;49.022;12.114;2024-03-02T12:33:31;96691.09;;;18.03;100.00
18795;BME280;29610;49.022;12.114;2024-03-02T12:36:02;96680.81;;;16.47;100.00
18795;BME280;29610;49.022;12.114;2024-03-02T12:38:31;96685.09;;;15.90;100.00
18795;BME280;29610;49.022;12.114;2024-03-02T12:40:59;96671.28;;;15.80;100.00
18795;BME280;29610;49.022;12.114;2024-03-02T12:43:30;96673.69;;;16.43;100.00
18795;BME280;29610;49.022;12.114;2024-03-02T12:45:59;96668.81;;;16.15;100.00
18795;BME280;29610;49.022;12.114;2024-03-02T12:48:28;96672.13;;;15.40;100.00
18795;BME280;29610;49.022;12.114;2024-03-02T12:50:56;96664.56;;;15.70;100.00
18795;BME280;29610;49.022;12.114;2024-03-02T12:53:26;96669.16;;;15.23;100.00
18795;BME280;29610;49.022;12.114;2024-03-02T12:55:55;96672.44;;;14.65;100.00
18795;BME280;29610;49.022;12.114;2024-03-02T12:58:24;96669.88;;;14.80;100.00
18795;BME280;29610;49.022;12.114;2024-03-02T13:01:06;96665.38;;;14.98;100.00
18795;BME280;29610;49.022;12.114;2024-03-02T13:03:37;96654.13;;;15.39;100.00
18795;BME280;29610;49.022;12.114;2024-03-02T13:06:07;96654.84;;;15.36;100.00
18795;BME280;29610;49.022;12.114;2024-03-02T13:08:37;96660.41;;;14.74;100.00
18795;BME280;29610;49.022;12.114;2024-03-02T13:11:06;96655.09;;;14.54;100.00